createdAt,value
2019-03-06T00:02:25.728Z,20.17
2019-03-06T00:04:55.729Z,19.05
2019-03-06T00:07:25.770Z,21.20
2019-03-06T00:09:55.808Z,19.65
2019-03-06T00:12:26.159Z,19.45
2019-03-06T00:14:56.175Z,20.00
2019-03-06T00:17:26.149Z,19.42
2019-03-06T00:19:56.154Z,19.92
2019-03-06T00:22:26.139Z,20.32
2019-03-06T00:24:56.146Z,17.87
2019-03-06T00:27:26.125Z,20.55
2019-03-06T00:29:56.128Z,19.35
2019-03-06T00:32:26.103Z,17.70
2019-03-06T00:34:57.758Z,17.90
2019-03-06T00:37:27.743Z,19.20
2019-03-06T00:40:03.799Z,18.55
2019-03-06T00:42:35.719Z,19.75
2019-03-06T00:45:07.518Z,17.87
2019-03-06T00:47:37.498Z,19.50
2019-03-06T00:50:07.543Z,16.80
2019-03-06T00:52:37.519Z,19.60
2019-03-06T00:55:07.591Z,16.75
2019-03-06T00:57:37.599Z,16.93
2019-03-06T01:00:08.163Z,17.10
2019-03-06T01:02:38.242Z,16.15
2019-03-06T01:05:08.420Z,16.75
2019-03-06T01:07:38.407Z,15.93
2019-03-06T01:10:09.966Z,17.02
2019-03-06T01:12:40.348Z,17.42
2019-03-06T01:15:11.000Z,17.98
2019-03-06T01:17:40.970Z,17.57
2019-03-06T01:20:11.006Z,19.57
2019-03-06T01:22:41.055Z,15.43
2019-03-06T01:25:11.274Z,15.35
2019-03-06T01:27:41.258Z,16.97
2019-03-06T01:30:13.085Z,18.60
2019-03-06T01:32:43.546Z,19.27
2019-03-06T01:35:28.122Z,17.00
2019-03-06T01:38:17.146Z,16.05
2019-03-06T01:41:04.367Z,16.60
2019-03-06T01:43:39.375Z,19.15
2019-03-06T01:46:09.475Z,15.32
2019-03-06T01:48:39.458Z,17.27
2019-03-06T01:51:11.540Z,15.90
2019-03-06T01:53:42.206Z,16.00
2019-03-06T01:56:12.419Z,15.58
2019-03-06T01:58:42.400Z,14.75
2019-03-06T02:01:12.487Z,15.05
2019-03-06T02:03:42.455Z,15.55
2019-03-06T02:06:12.460Z,13.85
2019-03-06T02:08:42.442Z,12.23
2019-03-06T02:11:12.725Z,13.75
2019-03-06T02:13:42.718Z,15.05
2019-03-06T02:16:12.727Z,12.70
2019-03-06T02:18:43.947Z,13.00
2019-03-06T02:21:13.955Z,14.47
2019-03-06T02:23:43.933Z,15.55
2019-03-06T02:26:13.930Z,14.60
2019-03-06T02:28:43.903Z,13.45
2019-03-06T02:31:13.983Z,14.53
2019-03-06T02:33:43.979Z,13.40
2019-03-06T02:36:14.059Z,13.48
2019-03-06T02:38:44.043Z,15.70
2019-03-06T02:41:14.066Z,16.60
2019-03-06T02:43:44.049Z,14.87
2019-03-06T02:46:14.121Z,15.65
2019-03-06T02:48:45.088Z,14.85
2019-03-06T02:51:15.079Z,14.35
2019-03-06T02:53:45.188Z,11.73
2019-03-06T02:56:15.338Z,14.73
2019-03-06T02:59:10.215Z,15.20
2019-03-06T03:01:50.333Z,13.85
2019-03-06T03:04:31.446Z,12.70
2019-03-06T03:07:07.735Z,13.68
2019-03-06T03:09:38.092Z,12.05
2019-03-06T03:12:08.096Z,14.78
2019-03-06T03:14:38.098Z,13.62
2019-03-06T03:17:08.233Z,12.88
2019-03-06T03:19:38.233Z,13.03
2019-03-06T03:22:08.585Z,13.50
2019-03-06T03:24:38.599Z,12.55
2019-03-06T03:27:08.579Z,14.18
2019-03-06T03:29:38.692Z,12.28
2019-03-06T03:32:08.688Z,12.13
2019-03-06T03:34:38.721Z,12.60
2019-03-06T03:37:08.724Z,13.08
2019-03-06T03:39:38.815Z,13.78
2019-03-06T03:42:09.211Z,11.70
2019-03-06T03:44:39.226Z,12.68
2019-03-06T03:47:09.289Z,15.08
2019-03-06T03:49:39.479Z,15.38
2019-03-06T03:52:09.522Z,14.40
2019-03-06T03:54:39.603Z,11.63
2019-03-06T03:57:09.592Z,12.43
2019-03-06T03:59:39.610Z,13.75
2019-03-06T04:02:09.663Z,16.20
2019-03-06T04:04:39.685Z,17.20
2019-03-06T04:07:09.667Z,14.65
2019-03-06T04:09:39.782Z,13.75
2019-03-06T04:12:09.799Z,15.20
2019-03-06T04:14:39.891Z,15.38
2019-03-06T04:17:09.931Z,21.40
2019-03-06T04:19:39.956Z,28.90
2019-03-06T04:22:10.347Z,34.23
2019-03-06T04:24:40.371Z,30.27
2019-03-06T04:27:10.347Z,25.85
2019-03-06T04:29:40.353Z,17.85
2019-03-06T04:32:10.339Z,21.57
2019-03-06T04:34:40.638Z,19.92
2019-03-06T04:37:10.691Z,16.02
2019-03-06T04:39:40.698Z,18.27
2019-03-06T04:42:10.711Z,23.85
2019-03-06T04:44:40.720Z,19.57
2019-03-06T04:47:10.695Z,17.50
2019-03-06T04:49:40.702Z,20.48
2019-03-06T04:52:10.697Z,17.50
2019-03-06T04:54:40.711Z,16.07
2019-03-06T04:57:10.722Z,17.52
2019-03-06T04:59:40.730Z,14.00
2019-03-06T05:02:10.715Z,17.73
2019-03-06T05:04:40.710Z,17.32
2019-03-06T05:07:10.720Z,18.42
2019-03-06T05:09:41.071Z,18.35
2019-03-06T05:12:11.079Z,17.25
2019-03-06T05:14:41.134Z,17.52
2019-03-06T05:17:45.609Z,17.55
2019-03-06T05:20:15.990Z,16.20
2019-03-06T05:22:45.984Z,19.07
2019-03-06T05:25:15.995Z,18.27
2019-03-06T05:27:46.348Z,18.65
2019-03-06T05:30:17.347Z,21.97
2019-03-06T05:32:47.638Z,19.65
2019-03-06T05:35:30.303Z,19.12
2019-03-06T05:38:30.696Z,21.42
2019-03-06T05:41:00.955Z,19.98
2019-03-06T05:43:31.322Z,16.50
2019-03-06T05:46:01.327Z,20.50
2019-03-06T05:48:31.316Z,18.30
2019-03-06T05:51:01.326Z,18.17
2019-03-06T05:53:31.383Z,19.62
2019-03-06T05:56:01.442Z,18.02
2019-03-06T05:58:31.432Z,22.58
2019-03-06T06:01:01.461Z,17.15
2019-03-06T06:03:31.438Z,19.07
2019-03-06T06:06:01.447Z,22.45
2019-03-06T06:08:31.425Z,18.12
2019-03-06T06:11:01.448Z,19.05
2019-03-06T06:13:31.445Z,22.73
2019-03-06T06:16:01.522Z,20.08
2019-03-06T06:18:31.719Z,20.77
2019-03-06T06:21:17.456Z,16.87
2019-03-06T06:23:51.063Z,19.70
2019-03-06T06:26:21.355Z,20.62
2019-03-06T06:28:51.330Z,18.65
2019-03-06T06:31:21.410Z,18.10
2019-03-06T06:33:51.428Z,17.55
2019-03-06T06:36:21.412Z,17.12
2019-03-06T06:38:51.589Z,16.67
2019-03-06T06:41:21.576Z,16.87
2019-03-06T06:43:51.662Z,16.60
2019-03-06T06:46:21.710Z,17.20
2019-03-06T06:48:51.898Z,17.57
2019-03-06T06:51:50.405Z,16.40
2019-03-06T06:54:50.825Z,14.80
2019-03-06T06:57:32.807Z,14.68
2019-03-06T07:00:47.776Z,15.35
2019-03-06T07:04:23.184Z,13.65
2019-03-06T07:07:03.340Z,14.20
2019-03-06T07:09:45.116Z,15.55
2019-03-06T07:12:41.755Z,15.43
2019-03-06T07:15:39.695Z,13.28
2019-03-06T07:18:19.526Z,15.43
2019-03-06T07:21:02.343Z,16.07
2019-03-06T07:23:48.443Z,12.73
2019-03-06T07:26:43.773Z,16.62
2019-03-06T07:29:41.807Z,12.18
2019-03-06T07:32:27.169Z,11.90
2019-03-06T07:35:50.801Z,19.52
2019-03-06T07:38:21.016Z,17.20
2019-03-06T07:40:59.980Z,12.20
2019-03-06T07:43:41.602Z,16.73
2019-03-06T07:46:26.768Z,12.37
2019-03-06T07:49:14.238Z,14.40
2019-03-06T07:52:06.043Z,11.80
2019-03-06T07:54:55.100Z,11.03
2019-03-06T07:57:27.996Z,12.28
2019-03-06T07:59:58.376Z,10.10
2019-03-06T08:02:38.084Z,10.30
2019-03-06T08:05:08.989Z,8.40
2019-03-06T08:07:39.071Z,10.15
2019-03-06T08:10:14.878Z,7.70
2019-03-06T08:12:50.999Z,10.35
2019-03-06T08:15:38.981Z,8.28
2019-03-06T08:18:26.850Z,7.83
2019-03-06T08:21:11.258Z,7.33
2019-03-06T08:23:54.615Z,7.40
2019-03-06T08:26:24.595Z,7.78
2019-03-06T08:28:54.998Z,10.45
2019-03-06T08:31:37.326Z,8.43
2019-03-06T08:34:07.333Z,9.63
2019-03-06T08:36:37.350Z,7.60
2019-03-06T08:39:17.515Z,8.28
2019-03-06T08:41:47.599Z,7.08
2019-03-06T08:44:17.647Z,7.58
2019-03-06T08:47:09.743Z,7.15
2019-03-06T08:49:55.163Z,6.72
2019-03-06T08:52:49.769Z,8.23
2019-03-06T08:55:41.768Z,6.67
2019-03-06T08:58:29.699Z,5.85
2019-03-06T09:01:40.721Z,7.55
2019-03-06T09:04:18.943Z,6.28
2019-03-06T09:06:56.995Z,5.70
2019-03-06T09:09:46.071Z,4.50
2019-03-06T09:12:33.990Z,8.70
2019-03-06T09:15:29.292Z,6.20
2019-03-06T09:18:17.015Z,5.12
2019-03-06T09:21:06.178Z,3.67
2019-03-06T09:24:02.352Z,4.08
2019-03-06T09:26:54.563Z,6.45
2019-03-06T09:29:49.384Z,5.28
2019-03-06T09:32:30.300Z,4.22
2019-03-06T09:35:25.347Z,4.15
2019-03-06T09:38:26.736Z,4.37
2019-03-06T09:41:34.507Z,3.08
2019-03-06T09:44:09.379Z,3.75
2019-03-06T09:46:58.745Z,3.92
2019-03-06T09:50:05.939Z,3.98
2019-03-06T09:52:55.000Z,3.83
2019-03-06T09:55:43.028Z,7.20
2019-03-06T09:58:37.956Z,4.92
2019-03-06T10:01:25.984Z,5.75
2019-03-06T10:04:13.658Z,4.33
2019-03-06T10:07:01.543Z,3.30
2019-03-06T10:09:37.324Z,3.83
2019-03-06T10:12:15.129Z,4.37
2019-03-06T10:15:13.202Z,3.62
2019-03-06T10:17:47.623Z,4.50
2019-03-06T10:20:25.170Z,3.02
2019-03-06T10:22:51.944Z,2.95
2019-03-06T10:25:29.817Z,4.60
2019-03-06T10:27:54.999Z,2.45
2019-03-06T10:30:25.083Z,3.27
2019-03-06T10:32:55.471Z,4.62
2019-03-06T10:35:26.055Z,2.62
2019-03-06T10:37:56.334Z,6.87
2019-03-06T10:40:26.419Z,4.33
2019-03-06T10:42:56.766Z,5.20
2019-03-06T10:45:26.829Z,3.72
2019-03-06T10:47:57.239Z,4.30
2019-03-06T10:50:28.426Z,3.22
2019-03-06T10:52:59.107Z,2.98
2019-03-06T10:55:29.267Z,2.90
2019-03-06T10:57:59.602Z,2.27
2019-03-06T11:00:33.745Z,4.42
2019-03-06T11:03:05.203Z,3.27
2019-03-06T11:05:35.928Z,2.42
2019-03-06T11:08:06.587Z,3.92
2019-03-06T11:10:36.789Z,3.83
2019-03-06T11:13:10.543Z,3.05
2019-03-06T11:15:41.469Z,5.25
2019-03-06T11:18:11.873Z,4.10
2019-03-06T11:20:42.459Z,5.03
2019-03-06T11:23:13.074Z,5.08
2019-03-06T11:25:43.484Z,4.62
2019-03-06T11:28:13.993Z,4.28
2019-03-06T11:30:50.716Z,5.67
2019-03-06T11:33:23.471Z,6.42
2019-03-06T11:35:54.883Z,6.00
2019-03-06T11:38:26.862Z,3.08
2019-03-06T11:40:57.514Z,5.37
2019-03-06T11:43:27.618Z,3.05
2019-03-06T11:45:57.805Z,2.60
2019-03-06T11:48:28.444Z,4.80
2019-03-06T11:50:58.626Z,5.35
2019-03-06T11:53:28.879Z,3.25
2019-03-06T11:55:59.181Z,3.25
2019-03-06T11:58:29.495Z,2.85
2019-03-06T12:00:59.791Z,5.05
2019-03-06T12:03:30.206Z,2.37
2019-03-06T12:06:00.999Z,3.02
2019-03-06T12:08:32.339Z,2.20
2019-03-06T12:11:02.373Z,3.83
2019-03-06T12:13:32.487Z,2.98
2019-03-06T12:16:02.650Z,3.05
2019-03-06T12:18:34.183Z,3.42
2019-03-06T12:21:04.388Z,5.30
2019-03-06T12:23:34.463Z,4.65
2019-03-06T12:26:04.759Z,7.78
2019-03-06T12:28:34.855Z,3.10
2019-03-06T12:31:11.394Z,2.50
2019-03-06T12:33:41.492Z,2.58
2019-03-06T12:36:11.478Z,2.80
2019-03-06T12:38:43.900Z,5.58
2019-03-06T12:41:13.991Z,2.33
2019-03-06T12:43:44.750Z,3.70
2019-03-06T12:46:25.236Z,5.58
2019-03-06T12:48:58.338Z,4.28
2019-03-06T12:51:29.203Z,4.30
2019-03-06T12:53:59.235Z,6.20
2019-03-06T12:56:29.350Z,3.05
2019-03-06T12:58:59.389Z,3.27
2019-03-06T13:01:29.656Z,3.12
2019-03-06T13:03:59.747Z,3.30
2019-03-06T13:06:29.814Z,2.70
2019-03-06T13:09:01.073Z,10.35
2019-03-06T13:11:32.749Z,2.22
2019-03-06T13:14:02.899Z,2.75
2019-03-06T13:16:32.887Z,3.60
2019-03-06T13:19:03.473Z,3.45
2019-03-06T13:21:34.608Z,3.80
2019-03-06T13:24:05.162Z,4.60
2019-03-06T13:26:35.348Z,4.92
2019-03-06T13:29:05.415Z,4.20
2019-03-06T13:31:35.724Z,6.35
2019-03-06T13:34:27.590Z,7.45
2019-03-06T13:36:57.734Z,4.42
2019-03-06T13:39:27.795Z,3.45
2019-03-06T13:41:57.875Z,6.70
2019-03-06T13:44:27.914Z,7.40
2019-03-06T13:46:58.075Z,4.42
2019-03-06T13:49:28.211Z,3.58
2019-03-06T13:51:58.450Z,5.15
2019-03-06T13:54:28.779Z,5.40
2019-03-06T13:56:58.892Z,7.65
2019-03-06T13:59:28.954Z,5.92
2019-03-06T14:02:02.577Z,3.22
2019-03-06T14:04:32.635Z,2.22
2019-03-06T14:07:02.997Z,5.25
2019-03-06T14:09:33.154Z,3.75
2019-03-06T14:12:03.259Z,3.15
2019-03-06T14:14:33.322Z,2.85
2019-03-06T14:17:03.735Z,2.60
2019-03-06T14:19:35.104Z,2.40
2019-03-06T14:22:05.595Z,2.92
2019-03-06T14:24:35.827Z,3.33
2019-03-06T14:27:07.088Z,3.42
2019-03-06T14:29:37.100Z,4.35
2019-03-06T14:32:14.262Z,3.42
2019-03-06T14:34:38.916Z,4.78
2019-03-06T14:37:09.036Z,5.75
2019-03-06T14:39:39.116Z,3.37
2019-03-06T14:42:09.279Z,2.37
2019-03-06T14:44:39.365Z,2.12
2019-03-06T14:47:10.007Z,3.30
2019-03-06T14:49:40.000Z,4.45
2019-03-06T14:52:10.035Z,5.30
2019-03-06T14:54:40.099Z,2.02
2019-03-06T14:57:10.284Z,4.00
2019-03-06T14:59:40.357Z,4.40
2019-03-06T15:02:10.721Z,3.10
2019-03-06T15:04:40.826Z,3.47
2019-03-06T15:07:10.919Z,3.33
2019-03-06T15:09:41.090Z,3.67
2019-03-06T15:12:11.216Z,2.30
2019-03-06T15:14:41.272Z,5.87
2019-03-06T15:17:11.396Z,4.37
2019-03-06T15:19:41.567Z,2.80
2019-03-06T15:22:13.103Z,2.80
2019-03-06T15:24:43.191Z,5.87
2019-03-06T15:27:13.715Z,4.90
2019-03-06T15:29:43.794Z,9.75
2019-03-06T15:32:13.894Z,4.25
2019-03-06T15:34:44.171Z,7.97
2019-03-06T15:37:14.266Z,4.37
2019-03-06T15:39:48.528Z,3.02
2019-03-06T15:42:17.050Z,3.67
2019-03-06T15:44:47.126Z,3.33
2019-03-06T15:47:17.294Z,3.52
2019-03-06T15:49:47.326Z,2.90
2019-03-06T15:52:17.388Z,1.55
2019-03-06T15:54:47.671Z,5.47
2019-03-06T15:57:19.156Z,3.60
2019-03-06T15:59:49.292Z,3.40
2019-03-06T16:02:19.474Z,3.65
2019-03-06T16:04:49.583Z,4.87
2019-03-06T16:07:20.032Z,3.10
2019-03-06T16:09:50.335Z,3.50
2019-03-06T16:12:20.507Z,2.35
2019-03-06T16:14:51.050Z,5.17
2019-03-06T16:17:21.332Z,3.50
2019-03-06T16:19:51.633Z,4.42
2019-03-06T16:22:21.814Z,4.62
2019-03-06T16:24:51.963Z,4.30
2019-03-06T16:27:22.010Z,7.60
2019-03-06T16:29:52.115Z,2.58
2019-03-06T16:32:22.226Z,3.87
2019-03-06T16:34:52.635Z,3.58
2019-03-06T16:37:22.738Z,2.90
2019-03-06T16:39:52.995Z,5.30
2019-03-06T16:42:23.086Z,3.58
2019-03-06T16:44:53.247Z,4.47
2019-03-06T16:47:23.519Z,5.42
2019-03-06T16:49:53.669Z,4.58
2019-03-06T16:52:23.752Z,3.05
2019-03-06T16:54:53.927Z,6.28
2019-03-06T16:57:24.174Z,3.77
2019-03-06T16:59:54.591Z,3.25
2019-03-06T17:02:26.155Z,5.50
2019-03-06T17:04:56.452Z,6.90
2019-03-06T17:07:26.664Z,4.33
2019-03-06T17:09:56.818Z,3.80
2019-03-06T17:12:27.002Z,4.95
2019-03-06T17:14:57.327Z,3.85
2019-03-06T17:17:27.381Z,3.72
2019-03-06T17:19:57.498Z,5.03
2019-03-06T17:22:28.535Z,3.45
2019-03-06T17:24:59.383Z,3.47
2019-03-06T17:27:29.470Z,4.62
2019-03-06T17:29:59.724Z,4.05
2019-03-06T17:32:29.877Z,3.42
2019-03-06T17:34:59.965Z,3.30
2019-03-06T17:37:30.081Z,6.37
2019-03-06T17:40:00.472Z,5.85
2019-03-06T17:42:30.595Z,3.58
2019-03-06T17:45:00.647Z,5.05
2019-03-06T17:47:30.779Z,4.10
2019-03-06T17:50:02.023Z,3.42
2019-03-06T17:52:32.552Z,5.15
2019-03-06T17:55:02.683Z,4.70
2019-03-06T17:57:35.792Z,5.05
2019-03-06T18:00:16.494Z,4.65
2019-03-06T18:02:38.878Z,4.80
2019-03-06T18:05:09.282Z,5.53
2019-03-06T18:07:39.491Z,5.28
2019-03-06T18:10:11.529Z,6.97
2019-03-06T18:12:41.640Z,6.45
2019-03-06T18:15:12.618Z,5.92
2019-03-06T18:17:42.957Z,4.72
2019-03-06T18:20:14.381Z,6.40
2019-03-06T18:22:44.555Z,7.37
2019-03-06T18:25:16.067Z,5.67
2019-03-06T18:27:46.299Z,7.55
2019-03-06T18:30:17.541Z,4.55
2019-03-06T18:32:47.907Z,8.05
2019-03-06T18:35:17.994Z,6.62
2019-03-06T18:37:48.253Z,5.15
2019-03-06T18:40:18.447Z,5.67
2019-03-06T18:42:48.637Z,6.22
2019-03-06T18:45:19.794Z,7.58
2019-03-06T18:47:49.885Z,5.58
2019-03-06T18:50:20.066Z,7.05
2019-03-06T18:52:50.620Z,7.87
2019-03-06T18:55:20.719Z,6.15
2019-03-06T18:57:50.811Z,4.80
2019-03-06T19:00:21.335Z,7.15
2019-03-06T19:02:51.520Z,6.65
2019-03-06T19:05:22.008Z,5.58
2019-03-06T19:07:52.707Z,5.37
2019-03-06T19:10:23.446Z,5.55
2019-03-06T19:12:53.887Z,7.87
2019-03-06T19:15:23.994Z,16.25
2019-03-06T19:17:54.434Z,21.07
2019-03-06T19:20:24.715Z,11.35
2019-03-06T19:22:55.451Z,9.88
2019-03-06T19:25:25.519Z,9.65
2019-03-06T19:27:55.607Z,10.38
2019-03-06T19:30:25.691Z,6.70
2019-03-06T19:32:55.868Z,6.22
2019-03-06T19:35:26.055Z,8.38
2019-03-06T19:37:56.145Z,7.70
2019-03-06T19:40:26.511Z,4.87
2019-03-06T19:42:56.628Z,7.20
2019-03-06T19:45:27.011Z,7.45
2019-03-06T19:47:57.168Z,7.45
2019-03-06T19:50:28.437Z,9.13
2019-03-06T19:52:58.622Z,6.58
2019-03-06T19:55:28.822Z,8.95
2019-03-06T19:58:01.056Z,10.15
2019-03-06T20:00:31.487Z,7.65
2019-03-06T20:03:01.726Z,6.87
2019-03-06T20:05:34.679Z,7.72
2019-03-06T20:08:08.342Z,11.55
2019-03-06T20:10:38.866Z,13.60
2019-03-06T20:13:09.367Z,6.95
2019-03-06T20:15:39.699Z,5.58
2019-03-06T20:18:09.936Z,7.12
2019-03-06T20:20:40.368Z,10.15
2019-03-06T20:23:10.652Z,8.53
2019-03-06T20:25:40.774Z,10.60
2019-03-06T20:28:11.149Z,6.35
2019-03-06T20:30:41.235Z,9.25
2019-03-06T20:33:11.853Z,6.08
2019-03-06T20:35:42.214Z,6.00
2019-03-06T20:38:12.383Z,10.70
2019-03-06T20:40:42.465Z,8.13
2019-03-06T20:43:12.512Z,6.80
2019-03-06T20:45:42.611Z,6.28
2019-03-06T20:48:12.760Z,9.45
2019-03-06T20:50:42.926Z,5.72
2019-03-06T20:53:13.051Z,5.85
2019-03-06T20:55:43.172Z,8.80
2019-03-06T20:58:13.242Z,6.92
2019-03-06T21:00:43.275Z,9.03
2019-03-06T21:03:13.410Z,7.62
2019-03-06T21:05:43.512Z,10.93
2019-03-06T21:08:13.774Z,7.55
2019-03-06T21:10:43.988Z,7.47
2019-03-06T21:13:14.061Z,10.03
2019-03-06T21:15:44.173Z,12.03
2019-03-06T21:18:14.232Z,7.67
2019-03-06T21:20:44.384Z,6.55
2019-03-06T21:23:14.739Z,6.97
2019-03-06T21:25:44.825Z,6.70
2019-03-06T21:28:14.894Z,9.63
2019-03-06T21:30:45.297Z,8.80
2019-03-06T21:33:15.381Z,12.00
2019-03-06T21:35:45.578Z,6.92
2019-03-06T21:38:16.115Z,8.25
2019-03-06T21:40:47.208Z,6.97
2019-03-06T21:43:18.267Z,5.85
2019-03-06T21:45:48.400Z,8.65
2019-03-06T21:48:18.549Z,7.37
2019-03-06T21:50:48.644Z,8.75
2019-03-06T21:53:18.724Z,6.78
2019-03-06T21:55:48.844Z,6.78
2019-03-06T21:58:18.904Z,4.97
2019-03-06T22:00:49.082Z,7.10
2019-03-06T22:03:19.275Z,5.22
2019-03-06T22:05:49.712Z,5.92
2019-03-06T22:08:19.800Z,6.87
2019-03-06T22:10:49.860Z,4.80
2019-03-06T22:13:20.036Z,7.22
2019-03-06T22:15:50.124Z,6.35
2019-03-06T22:18:20.230Z,8.58
2019-03-06T22:20:50.392Z,5.33
2019-03-06T22:23:20.518Z,6.08
2019-03-06T22:25:50.615Z,5.47
2019-03-06T22:28:23.859Z,6.58
2019-03-06T22:30:53.935Z,5.45
2019-03-06T22:33:25.255Z,5.33
2019-03-06T22:35:55.455Z,5.75
2019-03-06T22:38:25.586Z,5.75
2019-03-06T22:40:55.652Z,4.55
2019-03-06T22:43:25.753Z,5.95
2019-03-06T22:45:55.927Z,6.67
2019-03-06T22:48:26.023Z,7.12
2019-03-06T22:50:56.067Z,6.22
2019-03-06T22:53:26.119Z,5.72
2019-03-06T22:55:56.311Z,6.42
2019-03-06T22:58:26.583Z,4.53
2019-03-06T23:01:01.770Z,7.17
2019-03-06T23:03:33.059Z,7.67
2019-03-06T23:06:03.127Z,5.00
2019-03-06T23:08:33.238Z,6.72
2019-03-06T23:11:03.571Z,7.40
2019-03-06T23:13:33.668Z,5.53
2019-03-06T23:16:03.806Z,5.47
2019-03-06T23:18:33.879Z,4.40
2019-03-06T23:21:04.824Z,5.53
2019-03-06T23:23:34.928Z,6.60
2019-03-06T23:26:04.997Z,8.18
2019-03-06T23:28:35.263Z,7.58
2019-03-06T23:31:05.310Z,6.20
2019-03-06T23:33:35.419Z,5.78
2019-03-06T23:36:05.550Z,8.75
2019-03-06T23:38:35.944Z,5.80
2019-03-06T23:41:06.003Z,5.97
2019-03-06T23:43:36.035Z,7.90
2019-03-06T23:46:06.087Z,6.95
2019-03-06T23:48:36.103Z,4.75
2019-03-06T23:51:13.000Z,5.55
2019-03-06T23:53:48.652Z,6.20
2019-03-06T23:56:18.751Z,7.15
2019-03-06T23:58:48.882Z,4.97
